sensor_id;sensor_type;location;lat;lon;timestamp;temperature;humidity
45409;DHT22;31162;51.076;3.784;2022-08-19T00:02:12;19.90;99.90
45409;DHT22;31162;51.076;3.784;2022-08-19T00:04:37;19.90;99.90
45409;DHT22;31162;51.076;3.784;2022-08-19T00:07:05;19.80;99.90
45409;DHT22;31162;51.076;3.784;2022-08-19T00:09:31;19.70;99.90
45409;DHT22;31162;51.076;3.784;2022-08-19T00:11:58;19.70;99.90
45409;DHT22;31162;51.076;3.784;2022-08-19T00:14:25;19.80;99.90
45409;DHT22;31162;51.076;3.784;2022-08-19T00:16:52;19.60;99.90
45409;DHT22;31162;51.076;3.784;2022-08-19T00:19:20;19.60;99.90
45409;DHT22;31162;51.076;3.784;2022-08-19T00:21:46;19.60;99.90
45409;DHT22;31162;51.076;3.784;2022-08-19T00:24:14;19.60;99.90
45409;DHT22;31162;51.076;3.784;2022-08-19T00:26:41;19.60;99.90
45409;DHT22;31162;51.076;3.784;2022-08-19T00:29:09;19.60;99.90
45409;DHT22;31162;51.076;3.784;2022-08-19T00:31:35;19.50;99.90
45409;DHT22;31162;51.076;3.784;2022-08-19T00:34:01;19.50;99.90
45409;DHT22;31162;51.076;3.784;2022-08-19T00:36:28;19.50;99.90
45409;DHT22;31162;51.076;3.784;2022-08-19T00:38:54;19.40;99.90
45409;DHT22;31162;51.076;3.784;2022-08-19T00:41:21;19.40;99.90
45409;DHT22;31162;51.076;3.784;2022-08-19T00:44:10;19.40;99.90
45409;DHT22;31162;51.076;3.784;2022-08-19T00:46:42;19.30;99.90
45409;DHT22;31162;51.076;3.784;2022-08-19T00:49:35;19.40;99.90
45409;DHT22;31162;51.076;3.784;2022-08-19T00:52:07;19.30;99.90
45409;DHT22;31162;51.076;3.784;2022-08-19T00:54:36;19.30;99.90
45409;DHT22;31162;51.076;3.784;2022-08-19T00:57:05;19.20;99.90
45409;DHT22;31162;51.076;3.784;2022-08-19T00:59:34;19.20;99.90
45409;DHT22;31162;51.076;3.784;2022-08-19T01:02:01;19.10;99.90
45409;DHT22;31162;51.076;3.784;2022-08-19T01:04:28;19.10;99.90
45409;DHT22;31162;51.076;3.784;2022-08-19T01:06:55;19.00;99.90
45409;DHT22;31162;51.076;3.784;2022-08-19T01:09:21;19.00;99.90
45409;DHT22;31162;51.076;3.784;2022-08-19T01:11:47;19.00;99.90
45409;DHT22;31162;51.076;3.784;2022-08-19T01:14:13;19.00;99.90
45409;DHT22;31162;51.076;3.784;2022-08-19T01:16:40;19.00;99.90
45409;DHT22;31162;51.076;3.784;2022-08-19T01:19:32;19.10;99.90
45409;DHT22;31162;51.076;3.784;2022-08-19T01:22:04;19.10;99.90
45409;DHT22;31162;51.076;3.784;2022-08-19T01:24:31;19.10;99.90
45409;DHT22;31162;51.076;3.784;2022-08-19T01:26:57;19.00;99.90
45409;DHT22;31162;51.076;3.784;2022-08-19T01:29:23;18.90;99.90
45409;DHT22;31162;51.076;3.784;2022-08-19T01:31:49;18.90;99.90
45409;DHT22;31162;51.076;3.784;2022-08-19T01:34:18;18.80;99.90
45409;DHT22;31162;51.076;3.784;2022-08-19T01:36:45;18.80;99.90
45409;DHT22;31162;51.076;3.784;2022-08-19T01:39:15;18.80;99.90
45409;DHT22;31162;51.076;3.784;2022-08-19T01:41:41;18.80;99.90
45409;DHT22;31162;51.076;3.784;2022-08-19T01:44:08;18.90;99.90
45409;DHT22;31162;51.076;3.784;2022-08-19T01:46:35;18.80;99.90
45409;DHT22;31162;51.076;3.784;2022-08-19T01:49:02;18.90;99.90
45409;DHT22;31162;51.076;3.784;2022-08-19T01:51:28;18.80;99.90
45409;DHT22;31162;51.076;3.784;2022-08-19T01:53:54;18.80;99.90
45409;DHT22;31162;51.076;3.784;2022-08-19T01:56:20;18.80;99.90
45409;DHT22;31162;51.076;3.784;2022-08-19T01:58:53;18.70;99.90
45409;DHT22;31162;51.076;3.784;2022-08-19T02:01:20;18.60;99.90
45409;DHT22;31162;51.076;3.784;2022-08-19T02:03:46;18.70;99.90
45409;DHT22;31162;51.076;3.784;2022-08-19T02:06:12;18.70;99.90
45409;DHT22;31162;51.076;3.784;2022-08-19T02:08:40;18.60;99.90
45409;DHT22;31162;51.076;3.784;2022-08-19T02:11:08;18.60;99.90
45409;DHT22;31162;51.076;3.784;2022-08-19T02:13:34;18.60;99.90
45409;DHT22;31162;51.076;3.784;2022-08-19T02:16:00;18.50;99.90
45409;DHT22;31162;51.076;3.784;2022-08-19T02:18:25;18.60;99.90
45409;DHT22;31162;51.076;3.784;2022-08-19T02:20:52;18.50;99.90
45409;DHT22;31162;51.076;3.784;2022-08-19T02:23:17;18.40;99.90
45409;DHT22;31162;51.076;3.784;2022-08-19T02:25:48;18.40;99.90
45409;DHT22;31162;51.076;3.784;2022-08-19T02:28:14;18.40;99.90
45409;DHT22;31162;51.076;3.784;2022-08-19T02:30:41;18.30;99.90
45409;DHT22;31162;51.076;3.784;2022-08-19T02:33:07;18.40;99.90
45409;DHT22;31162;51.076;3.784;2022-08-19T02:35:33;18.40;99.90
45409;DHT22;31162;51.076;3.784;2022-08-19T02:37:58;18.40;99.90
45409;DHT22;31162;51.076;3.784;2022-08-19T02:40:49;18.30;99.90
45409;DHT22;31162;51.076;3.784;2022-08-19T02:43:17;18.30;99.90
45409;DHT22;31162;51.076;3.784;2022-08-19T02:45:42;18.20;99.90
45409;DHT22;31162;51.076;3.784;2022-08-19T02:48:08;18.30;99.90
45409;DHT22;31162;51.076;3.784;2022-08-19T02:50:38;18.20;99.90
45409;DHT22;31162;51.076;3.784;2022-08-19T02:53:04;18.30;99.90
45409;DHT22;31162;51.076;3.784;2022-08-19T02:55:30;18.20;99.90
45409;DHT22;31162;51.076;3.784;2022-08-19T02:57:56;18.20;99.90
45409;DHT22;31162;51.076;3.784;2022-08-19T03:00:22;18.20;99.90
45409;DHT22;31162;51.076;3.784;2022-08-19T03:02:49;18.20;99.90
45409;DHT22;31162;51.076;3.784;2022-08-19T03:05:15;18.20;99.90
45409;DHT22;31162;51.076;3.784;2022-08-19T03:07:41;18.10;99.90
45409;DHT22;31162;51.076;3.784;2022-08-19T03:10:06;18.10;99.90
45409;DHT22;31162;51.076;3.784;2022-08-19T03:12:36;18.20;99.90
45409;DHT22;31162;51.076;3.784;2022-08-19T03:15:04;18.20;99.90
45409;DHT22;31162;51.076;3.784;2022-08-19T03:17:30;18.20;99.90
45409;DHT22;31162;51.076;3.784;2022-08-19T03:19:56;18.20;99.90
45409;DHT22;31162;51.076;3.784;2022-08-19T03:22:22;18.20;99.90
45409;DHT22;31162;51.076;3.784;2022-08-19T03:24:50;18.20;99.90
45409;DHT22;31162;51.076;3.784;2022-08-19T03:27:16;18.20;99.90
45409;DHT22;31162;51.076;3.784;2022-08-19T03:29:43;18.30;99.90
45409;DHT22;31162;51.076;3.784;2022-08-19T03:32:09;18.30;99.90
45409;DHT22;31162;51.076;3.784;2022-08-19T03:34:36;18.30;99.90
45409;DHT22;31162;51.076;3.784;2022-08-19T03:37:06;18.30;99.90
45409;DHT22;31162;51.076;3.784;2022-08-19T03:39:33;18.20;99.90
45409;DHT22;31162;51.076;3.784;2022-08-19T03:41:58;18.20;99.90
45409;DHT22;31162;51.076;3.784;2022-08-19T03:44:28;18.30;99.90
45409;DHT22;31162;51.076;3.784;2022-08-19T03:46:57;18.30;99.90
45409;DHT22;31162;51.076;3.784;2022-08-19T03:49:26;18.30;99.90
45409;DHT22;31162;51.076;3.784;2022-08-19T03:51:53;18.30;99.90
45409;DHT22;31162;51.076;3.784;2022-08-19T03:54:21;18.30;99.90
45409;DHT22;31162;51.076;3.784;2022-08-19T03:56:49;18.20;99.90
45409;DHT22;31162;51.076;3.784;2022-08-19T03:59:27;18.10;99.90
45409;DHT22;31162;51.076;3.784;2022-08-19T04:01:55;18.10;99.90
45409;DHT22;31162;51.076;3.784;2022-08-19T04:04:22;18.10;99.90
45409;DHT22;31162;51.076;3.784;2022-08-19T04:06:48;18.10;99.90
45409;DHT22;31162;51.076;3.784;2022-08-19T04:09:15;18.10;99.90
45409;DHT22;31162;51.076;3.784;2022-08-19T04:11:44;18.10;99.90
45409;DHT22;31162;51.076;3.784;2022-08-19T04:14:14;18.00;99.90
45409;DHT22;31162;51.076;3.784;2022-08-19T04:16:40;17.90;99.90
45409;DHT22;31162;51.076;3.784;2022-08-19T04:19:06;17.90;99.90
45409;DHT22;31162;51.076;3.784;2022-08-19T04:21:32;17.90;99.90
45409;DHT22;31162;51.076;3.784;2022-08-19T04:23:58;17.90;99.90
45409;DHT22;31162;51.076;3.784;2022-08-19T04:26:30;17.80;99.90
45409;DHT22;31162;51.076;3.784;2022-08-19T04:28:59;17.90;99.90
45409;DHT22;31162;51.076;3.784;2022-08-19T04:31:27;17.90;99.90
45409;DHT22;31162;51.076;3.784;2022-08-19T04:33:54;17.80;99.90
45409;DHT22;31162;51.076;3.784;2022-08-19T04:36:26;17.90;99.90
45409;DHT22;31162;51.076;3.784;2022-08-19T04:38:58;17.90;99.90
45409;DHT22;31162;51.076;3.784;2022-08-19T04:41:25;17.90;99.90
45409;DHT22;31162;51.076;3.784;2022-08-19T04:44:09;17.90;99.90
45409;DHT22;31162;51.076;3.784;2022-08-19T04:46:36;17.90;99.90
45409;DHT22;31162;51.076;3.784;2022-08-19T04:49:04;17.90;99.90
45409;DHT22;31162;51.076;3.784;2022-08-19T04:51:31;17.90;99.90
45409;DHT22;31162;51.076;3.784;2022-08-19T04:53:57;18.00;99.90
45409;DHT22;31162;51.076;3.784;2022-08-19T04:56:24;17.90;99.90
45409;DHT22;31162;51.076;3.784;2022-08-19T04:58:53;17.90;99.90
45409;DHT22;31162;51.076;3.784;2022-08-19T05:01:22;18.00;99.90
45409;DHT22;31162;51.076;3.784;2022-08-19T05:03:48;18.00;99.90
45409;DHT22;31162;51.076;3.784;2022-08-19T05:06:16;18.10;99.90
45409;DHT22;31162;51.076;3.784;2022-08-19T05:08:43;18.20;99.90
45409;DHT22;31162;51.076;3.784;2022-08-19T05:13:40;18.20;99.90
45409;DHT22;31162;51.076;3.784;2022-08-19T05:16:05;18.30;99.90
45409;DHT22;31162;51.076;3.784;2022-08-19T05:18:32;18.40;99.90
45409;DHT22;31162;51.076;3.784;2022-08-19T05:21:18;18.50;99.90
45409;DHT22;31162;51.076;3.784;2022-08-19T05:24:04;18.70;99.90
45409;DHT22;31162;51.076;3.784;2022-08-19T05:26:35;18.90;99.90
45409;DHT22;31162;51.076;3.784;2022-08-19T05:29:01;19.00;99.90
45409;DHT22;31162;51.076;3.784;2022-08-19T05:31:27;19.30;99.90
45409;DHT22;31162;51.076;3.784;2022-08-19T05:33:53;19.50;99.90
45409;DHT22;31162;51.076;3.784;2022-08-19T05:36:19;19.70;99.90
45409;DHT22;31162;51.076;3.784;2022-08-19T05:38:45;19.80;99.90
45409;DHT22;31162;51.076;3.784;2022-08-19T05:41:14;20.00;99.90
45409;DHT22;31162;51.076;3.784;2022-08-19T05:43:40;20.10;99.90
45409;DHT22;31162;51.076;3.784;2022-08-19T05:46:07;20.20;99.90
45409;DHT22;31162;51.076;3.784;2022-08-19T05:48:34;20.20;99.90
45409;DHT22;31162;51.076;3.784;2022-08-19T05:51:05;20.20;99.90
45409;DHT22;31162;51.076;3.784;2022-08-19T05:53:34;20.10;99.90
45409;DHT22;31162;51.076;3.784;2022-08-19T05:56:05;20.10;99.90
45409;DHT22;31162;51.076;3.784;2022-08-19T05:58:32;20.20;99.90
45409;DHT22;31162;51.076;3.784;2022-08-19T06:00:58;20.20;99.90
45409;DHT22;31162;51.076;3.784;2022-08-19T06:03:30;20.20;99.90
45409;DHT22;31162;51.076;3.784;2022-08-19T06:05:56;20.40;99.90
45409;DHT22;31162;51.076;3.784;2022-08-19T06:08:24;20.50;99.90
45409;DHT22;31162;51.076;3.784;2022-08-19T06:10:51;20.50;99.90
45409;DHT22;31162;51.076;3.784;2022-08-19T06:13:17;20.40;99.90
45409;DHT22;31162;51.076;3.784;2022-08-19T06:15:45;20.50;99.90
45409;DHT22;31162;51.076;3.784;2022-08-19T06:18:12;20.60;99.90
45409;DHT22;31162;51.076;3.784;2022-08-19T06:20:38;20.70;99.90
45409;DHT22;31162;51.076;3.784;2022-08-19T06:23:03;20.80;99.90
45409;DHT22;31162;51.076;3.784;2022-08-19T06:25:29;20.90;99.90
45409;DHT22;31162;51.076;3.784;2022-08-19T06:27:55;20.90;99.90
45409;DHT22;31162;51.076;3.784;2022-08-19T06:30:21;21.10;99.90
45409;DHT22;31162;51.076;3.784;2022-08-19T06:32:47;21.40;99.90
45409;DHT22;31162;51.076;3.784;2022-08-19T06:35:12;21.60;99.90
45409;DHT22;31162;51.076;3.784;2022-08-19T06:37:40;21.70;99.90
45409;DHT22;31162;51.076;3.784;2022-08-19T06:40:06;21.90;99.90
45409;DHT22;31162;51.076;3.784;2022-08-19T06:42:34;21.90;99.90
45409;DHT22;31162;51.076;3.784;2022-08-19T06:45:00;21.90;99.90
45409;DHT22;31162;51.076;3.784;2022-08-19T06:47:29;21.90;99.90
45409;DHT22;31162;51.076;3.784;2022-08-19T06:49:57;22.40;99.90
45409;DHT22;31162;51.076;3.784;2022-08-19T06:52:27;23.00;99.90
45409;DHT22;31162;51.076;3.784;2022-08-19T06:54:53;23.50;99.90
45409;DHT22;31162;51.076;3.784;2022-08-19T06:57:23;23.40;99.90
45409;DHT22;31162;51.076;3.784;2022-08-19T06:59:49;23.30;99.90
45409;DHT22;31162;51.076;3.784;2022-08-19T07:02:15;22.90;99.90
45409;DHT22;31162;51.076;3.784;2022-08-19T07:04:40;22.60;99.90
45409;DHT22;31162;51.076;3.784;2022-08-19T07:07:12;22.50;99.90
45409;DHT22;31162;51.076;3.784;2022-08-19T07:09:41;22.40;99.90
45409;DHT22;31162;51.076;3.784;2022-08-19T07:12:09;22.50;99.90
45409;DHT22;31162;51.076;3.784;2022-08-19T07:14:36;22.60;99.90
45409;DHT22;31162;51.076;3.784;2022-08-19T07:17:07;22.60;99.90
45409;DHT22;31162;51.076;3.784;2022-08-19T07:19:34;22.50;99.90
45409;DHT22;31162;51.076;3.784;2022-08-19T07:22:02;22.40;99.90
45409;DHT22;31162;51.076;3.784;2022-08-19T07:24:29;22.30;99.90
45409;DHT22;31162;51.076;3.784;2022-08-19T07:26:58;22.30;99.90
45409;DHT22;31162;51.076;3.784;2022-08-19T07:29:26;22.30;99.90
45409;DHT22;31162;51.076;3.784;2022-08-19T07:31:53;22.30;99.90
45409;DHT22;31162;51.076;3.784;2022-08-19T07:34:22;22.40;99.90
45409;DHT22;31162;51.076;3.784;2022-08-19T07:36:49;22.50;99.90
45409;DHT22;31162;51.076;3.784;2022-08-19T07:39:22;22.60;99.90
45409;DHT22;31162;51.076;3.784;2022-08-19T07:41:48;22.60;99.90
45409;DHT22;31162;51.076;3.784;2022-08-19T07:44:16;22.60;99.90
45409;DHT22;31162;51.076;3.784;2022-08-19T07:46:45;22.70;99.90
45409;DHT22;31162;51.076;3.784;2022-08-19T07:49:11;22.90;99.90
45409;DHT22;31162;51.076;3.784;2022-08-19T07:51:43;23.00;99.90
45409;DHT22;31162;51.076;3.784;2022-08-19T07:54:09;23.10;99.90
45409;DHT22;31162;51.076;3.784;2022-08-19T07:56:37;23.10;99.90
45409;DHT22;31162;51.076;3.784;2022-08-19T07:59:03;23.00;99.90
45409;DHT22;31162;51.076;3.784;2022-08-19T08:01:30;23.00;99.90
45409;DHT22;31162;51.076;3.784;2022-08-19T08:03:57;23.00;99.90
45409;DHT22;31162;51.076;3.784;2022-08-19T08:06:41;23.00;99.90
45409;DHT22;31162;51.076;3.784;2022-08-19T08:09:33;23.10;99.90
45409;DHT22;31162;51.076;3.784;2022-08-19T08:12:06;23.20;99.90
45409;DHT22;31162;51.076;3.784;2022-08-19T08:14:36;23.20;99.90
45409;DHT22;31162;51.076;3.784;2022-08-19T08:17:04;23.30;99.90
45409;DHT22;31162;51.076;3.784;2022-08-19T08:19:30;23.40;99.90
45409;DHT22;31162;51.076;3.784;2022-08-19T08:21:58;23.40;99.90
45409;DHT22;31162;51.076;3.784;2022-08-19T08:24:25;23.40;99.90
45409;DHT22;31162;51.076;3.784;2022-08-19T08:26:51;23.30;99.90
45409;DHT22;31162;51.076;3.784;2022-08-19T08:29:16;23.30;99.90
45409;DHT22;31162;51.076;3.784;2022-08-19T08:31:43;23.20;99.90
45409;DHT22;31162;51.076;3.784;2022-08-19T08:34:10;23.10;99.90
45409;DHT22;31162;51.076;3.784;2022-08-19T08:36:43;23.20;99.90
45409;DHT22;31162;51.076;3.784;2022-08-19T08:39:18;23.20;99.90
45409;DHT22;31162;51.076;3.784;2022-08-19T08:42:07;23.30;99.90
45409;DHT22;31162;51.076;3.784;2022-08-19T08:47:04;23.30;99.90
45409;DHT22;31162;51.076;3.784;2022-08-19T08:49:49;23.20;99.90
45409;DHT22;31162;51.076;3.784;2022-08-19T08:52:33;23.30;99.90
45409;DHT22;31162;51.076;3.784;2022-08-19T08:55:07;23.40;99.90
45409;DHT22;31162;51.076;3.784;2022-08-19T08:57:51;23.50;99.90
45409;DHT22;31162;51.076;3.784;2022-08-19T09:00:23;23.70;99.90
45409;DHT22;31162;51.076;3.784;2022-08-19T09:02:50;23.90;99.90
45409;DHT22;31162;51.076;3.784;2022-08-19T09:05:16;24.00;99.90
45409;DHT22;31162;51.076;3.784;2022-08-19T09:08:02;24.20;99.90
45409;DHT22;31162;51.076;3.784;2022-08-19T09:11:03;24.30;99.90
45409;DHT22;31162;51.076;3.784;2022-08-19T09:16:43;24.60;99.90
45409;DHT22;31162;51.076;3.784;2022-08-19T09:19:09;24.50;99.90
45409;DHT22;31162;51.076;3.784;2022-08-19T09:21:36;24.40;99.90
45409;DHT22;31162;51.076;3.784;2022-08-19T09:24:04;24.30;99.90
45409;DHT22;31162;51.076;3.784;2022-08-19T09:26:31;24.40;99.90
45409;DHT22;31162;51.076;3.784;2022-08-19T09:29:00;24.30;99.90
45409;DHT22;31162;51.076;3.784;2022-08-19T09:31:30;24.10;99.90
45409;DHT22;31162;51.076;3.784;2022-08-19T09:33:58;24.10;99.90
45409;DHT22;31162;51.076;3.784;2022-08-19T09:36:26;24.70;99.90
45409;DHT22;31162;51.076;3.784;2022-08-19T09:38:54;25.60;99.90
45409;DHT22;31162;51.076;3.784;2022-08-19T09:41:23;26.60;99.90
45409;DHT22;31162;51.076;3.784;2022-08-19T09:43:52;27.60;99.90
45409;DHT22;31162;51.076;3.784;2022-08-19T09:46:22;27.70;99.90
45409;DHT22;31162;51.076;3.784;2022-08-19T09:48:52;27.70;99.90
45409;DHT22;31162;51.076;3.784;2022-08-19T09:51:21;27.80;99.90
45409;DHT22;31162;51.076;3.784;2022-08-19T09:53:48;27.30;99.90
45409;DHT22;31162;51.076;3.784;2022-08-19T09:56:19;27.20;99.90
45409;DHT22;31162;51.076;3.784;2022-08-19T09:58:45;27.00;99.90
45409;DHT22;31162;51.076;3.784;2022-08-19T10:01:18;27.00;99.90
45409;DHT22;31162;51.076;3.784;2022-08-19T10:03:48;27.00;99.90
45409;DHT22;31162;51.076;3.784;2022-08-19T10:06:14;27.00;99.90
45409;DHT22;31162;51.076;3.784;2022-08-19T10:08:39;26.90;99.90
45409;DHT22;31162;51.076;3.784;2022-08-19T10:11:05;26.60;99.90
45409;DHT22;31162;51.076;3.784;2022-08-19T10:13:32;26.20;99.90
45409;DHT22;31162;51.076;3.784;2022-08-19T10:16:09;25.80;99.90
45409;DHT22;31162;51.076;3.784;2022-08-19T10:18:37;25.70;99.90
45409;DHT22;31162;51.076;3.784;2022-08-19T10:21:24;25.90;99.90
45409;DHT22;31162;51.076;3.784;2022-08-19T10:23:56;25.80;99.90
45409;DHT22;31162;51.076;3.784;2022-08-19T10:26:30;25.70;99.90
45409;DHT22;31162;51.076;3.784;2022-08-19T10:28:56;25.30;99.90
45409;DHT22;31162;51.076;3.784;2022-08-19T10:31:28;25.40;99.90
45409;DHT22;31162;51.076;3.784;2022-08-19T10:33:55;25.30;99.90
45409;DHT22;31162;51.076;3.784;2022-08-19T10:36:26;25.30;99.90
45409;DHT22;31162;51.076;3.784;2022-08-19T10:38:54;25.50;99.90
45409;DHT22;31162;51.076;3.784;2022-08-19T10:41:25;25.80;99.90
45409;DHT22;31162;51.076;3.784;2022-08-19T10:43:55;26.10;99.90
45409;DHT22;31162;51.076;3.784;2022-08-19T10:46:24;26.70;99.90
45409;DHT22;31162;51.076;3.784;2022-08-19T10:48:51;27.60;99.90
45409;DHT22;31162;51.076;3.784;2022-08-19T10:51:20;28.20;99.90
45409;DHT22;31162;51.076;3.784;2022-08-19T10:54:04;28.50;99.90
45409;DHT22;31162;51.076;3.784;2022-08-19T10:56:30;28.00;99.90
45409;DHT22;31162;51.076;3.784;2022-08-19T10:59:15;27.50;99.90
45409;DHT22;31162;51.076;3.784;2022-08-19T11:01:43;26.90;99.90
45409;DHT22;31162;51.076;3.784;2022-08-19T11:04:10;26.60;99.90
45409;DHT22;31162;51.076;3.784;2022-08-19T11:06:37;26.80;99.90
45409;DHT22;31162;51.076;3.784;2022-08-19T11:09:04;27.10;99.90
45409;DHT22;31162;51.076;3.784;2022-08-19T11:11:30;27.10;99.90
45409;DHT22;31162;51.076;3.784;2022-08-19T11:13:59;26.80;99.90
45409;DHT22;31162;51.076;3.784;2022-08-19T11:16:29;26.60;99.90
45409;DHT22;31162;51.076;3.784;2022-08-19T11:18:57;26.40;99.90
45409;DHT22;31162;51.076;3.784;2022-08-19T11:21:25;26.40;99.90
45409;DHT22;31162;51.076;3.784;2022-08-19T11:23:54;26.50;99.90
45409;DHT22;31162;51.076;3.784;2022-08-19T11:26:21;26.60;99.90
45409;DHT22;31162;51.076;3.784;2022-08-19T11:28:48;26.60;99.90
45409;DHT22;31162;51.076;3.784;2022-08-19T11:31:16;26.60;99.90
45409;DHT22;31162;51.076;3.784;2022-08-19T11:33:43;26.50;99.90
45409;DHT22;31162;51.076;3.784;2022-08-19T11:36:09;26.50;99.90
45409;DHT22;31162;51.076;3.784;2022-08-19T11:38:36;26.50;99.90
45409;DHT22;31162;51.076;3.784;2022-08-19T11:41:06;26.50;99.90
45409;DHT22;31162;51.076;3.784;2022-08-19T11:43:33;26.60;99.90
45409;DHT22;31162;51.076;3.784;2022-08-19T11:45:59;26.80;99.90
45409;DHT22;31162;51.076;3.784;2022-08-19T11:48:25;26.90;99.90
45409;DHT22;31162;51.076;3.784;2022-08-19T11:50:52;26.80;99.90
45409;DHT22;31162;51.076;3.784;2022-08-19T11:53:20;26.90;99.90
45409;DHT22;31162;51.076;3.784;2022-08-19T11:55:47;27.10;99.90
45409;DHT22;31162;51.076;3.784;2022-08-19T11:58:16;27.40;99.90
45409;DHT22;31162;51.076;3.784;2022-08-19T12:00:43;27.50;99.90
45409;DHT22;31162;51.076;3.784;2022-08-19T12:03:11;27.60;99.90
45409;DHT22;31162;51.076;3.784;2022-08-19T12:05:38;27.50;99.90
45409;DHT22;31162;51.076;3.784;2022-08-19T12:08:05;27.40;99.90
45409;DHT22;31162;51.076;3.784;2022-08-19T12:10:32;27.30;99.90
45409;DHT22;31162;51.076;3.784;2022-08-19T12:12:59;27.10;99.90
45409;DHT22;31162;51.076;3.784;2022-08-19T12:15:25;27.10;99.90
45409;DHT22;31162;51.076;3.784;2022-08-19T12:17:52;27.00;99.90
45409;DHT22;31162;51.076;3.784;2022-08-19T12:20:20;27.30;99.90
45409;DHT22;31162;51.076;3.784;2022-08-19T12:22:46;28.10;99.90
45409;DHT22;31162;51.076;3.784;2022-08-19T12:25:11;28.90;99.90
45409;DHT22;31162;51.076;3.784;2022-08-19T12:27:38;29.50;99.90
45409;DHT22;31162;51.076;3.784;2022-08-19T12:30:05;30.40;99.90
45409;DHT22;31162;51.076;3.784;2022-08-19T12:32:32;30.60;99.90
45409;DHT22;31162;51.076;3.784;2022-08-19T12:34:57;30.80;99.90
45409;DHT22;31162;51.076;3.784;2022-08-19T12:37:23;30.70;99.90
45409;DHT22;31162;51.076;3.784;2022-08-19T12:39:48;30.60;99.90
45409;DHT22;31162;51.076;3.784;2022-08-19T12:42:14;30.50;99.90
45409;DHT22;31162;51.076;3.784;2022-08-19T12:44:41;30.30;99.90
45409;DHT22;31162;51.076;3.784;2022-08-19T12:47:09;29.90;99.90
45409;DHT22;31162;51.076;3.784;2022-08-19T12:49:35;29.50;99.90
45409;DHT22;31162;51.076;3.784;2022-08-19T12:52:03;29.30;99.90
45409;DHT22;31162;51.076;3.784;2022-08-19T12:54:30;29.20;99.90
45409;DHT22;31162;51.076;3.784;2022-08-19T12:56:57;29.10;99.90
45409;DHT22;31162;51.076;3.784;2022-08-19T12:59:23;29.10;99.90
45409;DHT22;31162;51.076;3.784;2022-08-19T13:01:49;29.30;99.90
45409;DHT22;31162;51.076;3.784;2022-08-19T13:04:15;29.40;99.90
45409;DHT22;31162;51.076;3.784;2022-08-19T13:06:42;29.00;99.90
45409;DHT22;31162;51.076;3.784;2022-08-19T13:09:08;28.80;99.90
45409;DHT22;31162;51.076;3.784;2022-08-19T13:11:34;28.60;99.90
45409;DHT22;31162;51.076;3.784;2022-08-19T13:14:01;28.70;99.90
45409;DHT22;31162;51.076;3.784;2022-08-19T13:16:27;28.70;99.90
45409;DHT22;31162;51.076;3.784;2022-08-19T13:18:54;28.80;99.90
45409;DHT22;31162;51.076;3.784;2022-08-19T13:21:23;29.10;99.90
45409;DHT22;31162;51.076;3.784;2022-08-19T13:23:49;29.50;99.90
45409;DHT22;31162;51.076;3.784;2022-08-19T13:26:16;29.70;99.90
45409;DHT22;31162;51.076;3.784;2022-08-19T13:28:43;29.70;99.90
45409;DHT22;31162;51.076;3.784;2022-08-19T13:31:31;29.20;99.90
45409;DHT22;31162;51.076;3.784;2022-08-19T13:34:26;27.30;99.90
45409;DHT22;31162;51.076;3.784;2022-08-19T13:36:52;25.70;99.90
45409;DHT22;31162;51.076;3.784;2022-08-19T13:39:18;24.90;99.90
45409;DHT22;31162;51.076;3.784;2022-08-19T13:41:46;24.30;99.90
45409;DHT22;31162;51.076;3.784;2022-08-19T13:44:16;23.90;99.90
45409;DHT22;31162;51.076;3.784;2022-08-19T13:46:44;23.70;99.90
45409;DHT22;31162;51.076;3.784;2022-08-19T13:49:11;23.70;99.90
45409;DHT22;31162;51.076;3.784;2022-08-19T13:51:38;23.80;99.90
45409;DHT22;31162;51.076;3.784;2022-08-19T13:54:06;23.90;99.90
45409;DHT22;31162;51.076;3.784;2022-08-19T13:56:32;23.80;99.90
45409;DHT22;31162;51.076;3.784;2022-08-19T13:58:58;23.90;99.90
45409;DHT22;31162;51.076;3.784;2022-08-19T14:01:23;24.00;99.90
45409;DHT22;31162;51.076;3.784;2022-08-19T14:03:49;23.90;99.90
45409;DHT22;31162;51.076;3.784;2022-08-19T14:06:15;24.00;99.90
45409;DHT22;31162;51.076;3.784;2022-08-19T14:08:42;24.00;99.90
45409;DHT22;31162;51.076;3.784;2022-08-19T14:11:08;24.10;99.90
45409;DHT22;31162;51.076;3.784;2022-08-19T14:13:34;24.30;99.90
45409;DHT22;31162;51.076;3.784;2022-08-19T14:16:00;24.70;99.90
45409;DHT22;31162;51.076;3.784;2022-08-19T14:18:26;25.20;99.90
45409;DHT22;31162;51.076;3.784;2022-08-19T14:20:52;25.60;99.90
45409;DHT22;31162;51.076;3.784;2022-08-19T14:23:18;26.00;99.90
45409;DHT22;31162;51.076;3.784;2022-08-19T14:25:44;26.20;99.90
45409;DHT22;31162;51.076;3.784;2022-08-19T14:28:10;26.30;99.90
45409;DHT22;31162;51.076;3.784;2022-08-19T14:30:37;26.40;99.90
45409;DHT22;31162;51.076;3.784;2022-08-19T14:33:04;26.40;99.90
45409;DHT22;31162;51.076;3.784;2022-08-19T14:35:31;26.30;99.90
45409;DHT22;31162;51.076;3.784;2022-08-19T14:38:02;26.30;99.90
45409;DHT22;31162;51.076;3.784;2022-08-19T14:40:29;26.30;99.90
45409;DHT22;31162;51.076;3.784;2022-08-19T14:42:57;26.30;99.90
45409;DHT22;31162;51.076;3.784;2022-08-19T14:45:26;26.30;99.90
45409;DHT22;31162;51.076;3.784;2022-08-19T14:47:52;26.40;99.90
45409;DHT22;31162;51.076;3.784;2022-08-19T14:50:18;26.70;99.90
45409;DHT22;31162;51.076;3.784;2022-08-19T14:52:48;27.30;99.90
45409;DHT22;31162;51.076;3.784;2022-08-19T14:55:15;27.70;99.90
45409;DHT22;31162;51.076;3.784;2022-08-19T14:57:42;27.80;99.90
45409;DHT22;31162;51.076;3.784;2022-08-19T15:00:08;27.80;99.90
45409;DHT22;31162;51.076;3.784;2022-08-19T15:02:38;27.60;99.90
45409;DHT22;31162;51.076;3.784;2022-08-19T15:05:05;27.40;99.90
45409;DHT22;31162;51.076;3.784;2022-08-19T15:07:30;27.20;99.90
45409;DHT22;31162;51.076;3.784;2022-08-19T15:09:56;27.00;99.90
45409;DHT22;31162;51.076;3.784;2022-08-19T15:12:22;26.80;99.90
45409;DHT22;31162;51.076;3.784;2022-08-19T15:14:48;26.80;99.90
45409;DHT22;31162;51.076;3.784;2022-08-19T15:17:17;26.90;99.90
45409;DHT22;31162;51.076;3.784;2022-08-19T15:19:43;27.00;99.90
45409;DHT22;31162;51.076;3.784;2022-08-19T15:22:08;27.10;99.90
45409;DHT22;31162;51.076;3.784;2022-08-19T15:24:34;27.10;99.90
45409;DHT22;31162;51.076;3.784;2022-08-19T15:27:01;27.00;99.90
45409;DHT22;31162;51.076;3.784;2022-08-19T15:29:27;26.80;99.90
45409;DHT22;31162;51.076;3.784;2022-08-19T15:31:53;26.90;99.90
45409;DHT22;31162;51.076;3.784;2022-08-19T15:34:24;27.10;99.90
45409;DHT22;31162;51.076;3.784;2022-08-19T15:36:54;27.30;99.90
45409;DHT22;31162;51.076;3.784;2022-08-19T15:39:19;27.30;99.90
45409;DHT22;31162;51.076;3.784;2022-08-19T15:41:46;27.50;99.90
45409;DHT22;31162;51.076;3.784;2022-08-19T15:44:14;27.70;99.90
45409;DHT22;31162;51.076;3.784;2022-08-19T15:46:44;27.70;99.90